Погода Пресиденсия-Роке-Саэнс-Пенана неделю

Гран-Чако, Аргентина

22 - 28 июля
  • 22июля
    Сегодня
    +13°
    +25°
    Практически безоблачно
    ВремяПогодаТемператураВлажностьДавлениеВетер, м/сВероятность осадков
    00:00Ясно и безоблачно+15°C85 %758 мм3.6 м/с5 %
    03:00Ясно и безоблачно+12°C92 %758 мм3.6 м/с5 %
    06:00Ясно и безоблачно+11°C89 %758 мм3.2 м/с5 %
    09:00Ясно и безоблачно+11°C82 %759 мм3.3 м/с5 %
    12:00Практически безоблачно+19°C62 %760 мм2.8 м/с5 %
    15:00Практически безоблачно+23°C54 %757 мм2.3 м/с5 %
    18:00Ясно и безоблачно+24°C61 %756 мм2.4 м/с5 %
    21:00Ясно и безоблачно+18°C81 %757 мм2.4 м/с5 %
  • 23июля
    Вторник
    +18°
    +31°
    Ясно и безоблачно
    ВремяПогодаТемператураВлажностьДавлениеВетер, м/сВероятность осадков
    00:00Ясно и безоблачно+15°C92 %757 мм2.1 м/с5 %
    03:00Ясно и безоблачно+15°C96 %756 мм2.0 м/с5 %
    06:00Ясно и безоблачно+13°C99 %756 мм2.1 м/с5 %
    09:00Практически безоблачно+16°C93 %756 мм2.9 м/с5 %
    12:00Облачно с прояснениями+26°C55 %755 мм4.4 м/с5 %
    15:00Ясно и безоблачно+31°C31 %752 мм6.7 м/с5 %
    18:00Облачно с прояснениями+29°C32 %751 мм5.5 м/с5 %
    21:00Небольшая облачность+23°C42 %752 мм5.2 м/с5 %
  • 24июля
    Среда
    +15°
    +33°
    Ясно и безоблачно
    ВремяПогодаТемператураВлажностьДавлениеВетер, м/сВероятность осадков
    00:00Небольшая облачность+21°C54 %752 мм5.1 м/с5 %
    03:00Облачно с прояснениями+20°C48 %751 мм4.9 м/с5 %
    06:00Облачно с прояснениями+19°C45 %751 мм4.4 м/с5 %
    09:00Небольшая облачность+20°C43 %753 мм4.9 м/с5 %
    12:00Небольшая облачность+28°C33 %753 мм5.4 м/с5 %
    15:00Ясно и безоблачно+32°C27 %750 мм5.0 м/с5 %
    18:00Практически безоблачно+30°C42 %751 мм1.9 м/с5 %
    21:00Небольшая облачность+23°C45 %754 мм3.8 м/с5 %
  • 25июля
    Четверг
    +14°
    +26°
    Ясно и безоблачно
    ВремяПогодаТемператураВлажностьДавлениеВетер, м/сВероятность осадков
    00:00Ясно и безоблачно+20°C47 %756 мм4.9 м/с5 %
    03:00Ясно и безоблачно+19°C64 %756 мм5.0 м/с5 %
    06:00Ясно и безоблачно+18°C81 %756 мм3.8 м/с5 %
    09:00Ясно и безоблачно+17°C83 %757 мм3.1 м/с5 %
    12:00Ясно и безоблачно+23°C57 %757 мм3.3 м/с5 %
    15:00Ясно и безоблачно+26°C29 %754 мм3.8 м/с5 %
    18:00Облачно с прояснениями+25°C38 %754 мм2.9 м/с5 %
    21:00Облачно с прояснениями+18°C53 %754 мм2.4 м/с5 %
  • 26июля
    Пятница
    +12°
    +27°
    Ясно и безоблачно
    ВремяПогодаТемператураВлажностьДавлениеВетер, м/сВероятность осадков
    00:00Облачно с прояснениями+15°C57 %754 мм2.3 м/с5 %
    03:00Облачно с прояснениями+15°C60 %754 мм1.7 м/с5 %
    06:00Облачно с прояснениями+15°C69 %753 мм2.3 м/с5 %
    09:00Облачно с прояснениями+15°C76 %755 мм2.0 м/с4 %
    12:00Практически безоблачно+22°C61 %756 мм2.1 м/с5 %
    15:00Ясно и безоблачно+26°C52 %754 мм2.6 м/с5 %
    18:00Ясно и безоблачно+26°C53 %754 мм2.6 м/с5 %
    21:00Ясно и безоблачно+19°C71 %754 мм3.0 м/с5 %
Мы используем cookies
Соглашаюсь